createdAt,value
2018-05-07T00:01:38.914Z,84.80
2018-05-07T00:04:08.379Z,84.60
2018-05-07T00:06:36.584Z,85.60
2018-05-07T00:09:04.806Z,86.00
2018-05-07T00:11:33.065Z,85.80
2018-05-07T00:16:30.863Z,85.30
2018-05-07T00:18:59.087Z,85.70
2018-05-07T00:21:28.127Z,86.00
2018-05-07T00:26:25.807Z,86.70
2018-05-07T00:28:54.058Z,86.60
2018-05-07T00:31:22.293Z,87.00
2018-05-07T00:33:50.550Z,88.30
2018-05-07T00:38:48.274Z,87.90
2018-05-07T00:41:18.035Z,88.40
2018-05-07T00:43:46.734Z,88.20
2018-05-07T00:46:14.964Z,88.80
2018-05-07T00:48:43.186Z,89.80
2018-05-07T00:51:12.582Z,90.00
2018-05-07T00:53:40.854Z,90.20
2018-05-07T00:56:10.587Z,90.40
2018-05-07T00:58:39.758Z,90.70
2018-05-07T01:03:37.442Z,90.40
2018-05-07T01:06:06.207Z,90.70
2018-05-07T01:08:35.199Z,91.40
2018-05-07T01:11:03.415Z,91.60
2018-05-07T01:13:31.674Z,91.80
2018-05-07T01:16:01.408Z,91.60
2018-05-07T01:18:30.428Z,92.40
2018-05-07T01:20:59.782Z,92.20
2018-05-07T01:23:28.046Z,92.30
2018-05-07T01:25:57.071Z,92.60
2018-05-07T01:28:26.087Z,92.90
2018-05-07T01:30:54.318Z,93.20
2018-05-07T01:33:23.413Z,93.50
2018-05-07T01:38:21.091Z,93.30
2018-05-07T01:40:49.555Z,93.40
2018-05-07T01:45:47.243Z,94.10
2018-05-07T01:48:15.529Z,94.30
2018-05-07T01:50:43.754Z,94.40
2018-05-07T01:55:42.252Z,95.10
2018-05-07T01:58:11.992Z,95.00
2018-05-07T02:00:40.219Z,95.20
2018-05-07T02:03:08.507Z,95.10
2018-05-07T02:05:36.734Z,95.40
2018-05-07T02:08:05.006Z,95.80
2018-05-07T02:10:33.998Z,96.20
2018-05-07T02:13:02.998Z,96.50
2018-05-07T02:15:32.434Z,96.50
2018-05-07T02:18:01.431Z,96.90
2018-05-07T02:20:29.663Z,96.60
2018-05-07T02:22:58.738Z,97.00
2018-05-07T02:25:26.972Z,97.30
2018-05-07T02:27:55.966Z,97.70
2018-05-07T02:30:25.406Z,98.10
2018-05-07T02:32:53.639Z,98.50
2018-05-07T02:35:23.372Z,98.10
2018-05-07T02:37:52.411Z,99.10
2018-05-07T02:40:20.633Z,99.50
2018-05-07T02:42:48.864Z,99.90
2018-05-07T02:45:17.544Z,99.90
2018-05-07T02:47:45.776Z,99.90
2018-05-07T02:50:14.015Z,99.90
2018-05-07T02:52:42.278Z,99.90
2018-05-07T02:55:10.502Z,99.90
2018-05-07T02:57:39.491Z,99.90
2018-05-07T03:00:09.270Z,99.90
2018-05-07T03:02:37.491Z,99.90
2018-05-07T03:05:05.955Z,99.90
2018-05-07T03:07:34.576Z,99.90
2018-05-07T03:10:03.566Z,99.90
2018-05-07T03:12:31.927Z,99.90
2018-05-07T03:15:00.150Z,99.90
2018-05-07T03:17:29.215Z,99.90
2018-05-07T03:19:57.399Z,99.90
2018-05-07T03:22:26.018Z,99.90
2018-05-07T03:24:55.424Z,99.90
2018-05-07T03:27:24.131Z,99.90
2018-05-07T03:29:52.354Z,99.90
2018-05-07T03:32:21.718Z,99.90
2018-05-07T03:34:49.991Z,99.90
2018-05-07T03:37:18.987Z,99.90
2018-05-07T03:39:48.779Z,99.90
2018-05-07T03:42:17.007Z,99.90
2018-05-07T03:44:45.235Z,99.90
2018-05-07T03:47:15.614Z,99.90
2018-05-07T03:52:13.287Z,99.90
2018-05-07T03:54:41.939Z,99.90
2018-05-07T03:57:10.933Z,99.90
2018-05-07T03:59:39.213Z,99.90
2018-05-07T04:02:08.936Z,99.90
2018-05-07T04:04:38.299Z,99.90
2018-05-07T04:07:07.671Z,99.90
2018-05-07T04:09:35.969Z,99.90
2018-05-07T04:12:04.199Z,99.90
2018-05-07T04:14:32.422Z,99.90
2018-05-07T04:17:12.642Z,99.90
2018-05-07T04:22:28.248Z,99.90
2018-05-07T04:24:56.466Z,99.90
2018-05-07T04:27:24.694Z,99.90
2018-05-07T04:29:54.455Z,99.90
2018-05-07T04:32:23.055Z,99.90
2018-05-07T04:34:51.306Z,99.90
2018-05-07T04:37:19.562Z,99.90
2018-05-07T04:39:47.788Z,99.90
2018-05-07T04:44:45.881Z,99.90
2018-05-07T04:47:16.410Z,99.90
2018-05-07T04:49:45.088Z,99.90
2018-05-07T04:52:13.307Z,99.90
2018-05-07T04:54:41.531Z,99.90
2018-05-07T04:57:10.191Z,99.90
2018-05-07T04:59:38.414Z,99.90
2018-05-07T05:02:06.642Z,99.90
2018-05-07T05:04:36.059Z,99.90
2018-05-07T05:07:04.345Z,99.90
2018-05-07T05:09:33.282Z,99.90
2018-05-07T05:14:30.994Z,99.90
2018-05-07T05:16:59.258Z,99.90
2018-05-07T05:19:27.492Z,99.90
2018-05-07T05:21:56.482Z,99.90
2018-05-07T05:24:25.200Z,99.90
2018-05-07T05:26:54.898Z,99.90
2018-05-07T05:29:23.894Z,99.90
2018-05-07T05:31:52.155Z,99.90
2018-05-07T05:34:20.378Z,99.90
2018-05-07T05:36:49.375Z,99.90
2018-05-07T05:39:18.038Z,99.90
2018-05-07T05:41:47.399Z,99.90
2018-05-07T05:44:15.630Z,99.90
2018-05-07T05:46:43.895Z,99.90
2018-05-07T05:51:42.735Z,99.90
2018-05-07T05:54:12.095Z,99.90
2018-05-07T05:56:40.378Z,99.90
2018-05-07T05:59:08.604Z,99.90
2018-05-07T06:01:36.827Z,99.90
2018-05-07T06:04:05.659Z,99.90
2018-05-07T06:06:33.710Z,99.90
2018-05-07T06:09:02.777Z,99.90
2018-05-07T06:11:30.975Z,99.90
2018-05-07T06:13:59.195Z,99.90
2018-05-07T06:16:28.191Z,99.90
2018-05-07T06:18:57.950Z,99.90
2018-05-07T06:21:27.311Z,99.90
2018-05-07T06:23:55.568Z,99.90
2018-05-07T06:26:23.866Z,99.90
2018-05-07T06:28:52.091Z,99.90
2018-05-07T06:31:21.855Z,99.90
2018-05-07T06:33:50.079Z,99.90
2018-05-07T06:36:18.753Z,99.90
2018-05-07T06:38:46.980Z,99.90
2018-05-07T06:43:44.691Z,99.90
2018-05-07T06:46:12.918Z,99.90
2018-05-07T06:48:41.144Z,99.90
2018-05-07T06:51:09.400Z,99.90
2018-05-07T06:53:37.627Z,99.90
2018-05-07T06:56:07.044Z,99.90
2018-05-07T06:58:35.263Z,99.90
2018-05-07T07:01:03.487Z,99.90
2018-05-07T07:03:32.519Z,99.90
2018-05-07T07:06:01.510Z,99.90
2018-05-07T07:08:29.870Z,99.90
2018-05-07T07:10:58.771Z,99.90
2018-05-07T07:13:27.762Z,99.90
2018-05-07T07:15:56.755Z,99.90
2018-05-07T07:18:25.018Z,99.90
2018-05-07T07:20:54.016Z,98.80
2018-05-07T07:23:23.007Z,99.90
2018-05-07T07:25:51.278Z,99.60
2018-05-07T07:28:20.356Z,98.60
2018-05-07T07:30:48.494Z,97.50
2018-05-07T07:33:16.759Z,96.40
2018-05-07T07:38:15.575Z,95.60
2018-05-07T07:40:43.883Z,94.30
2018-05-07T07:43:13.250Z,94.50
2018-05-07T07:48:11.362Z,92.70
2018-05-07T07:50:40.350Z,93.50
2018-05-07T07:53:09.342Z,93.00
2018-05-07T07:55:37.606Z,92.80
2018-05-07T07:58:06.605Z,93.20
2018-05-07T08:00:34.831Z,91.40
2018-05-07T08:03:03.867Z,91.20
2018-05-07T08:05:32.101Z,91.30
2018-05-07T08:08:00.323Z,92.00
2018-05-07T08:10:28.958Z,91.70
2018-05-07T08:12:58.699Z,91.60
2018-05-07T08:15:28.431Z,91.10
2018-05-07T08:17:57.107Z,90.10
2018-05-07T08:20:25.335Z,84.80
2018-05-07T08:22:54.699Z,84.30
2018-05-07T08:27:53.906Z,90.40
2018-05-07T08:30:23.693Z,88.60
2018-05-07T08:32:53.039Z,85.00
2018-05-07T08:35:21.262Z,82.30
2018-05-07T08:37:49.539Z,82.50
2018-05-07T08:40:17.767Z,83.60
2018-05-07T08:42:46.023Z,83.10
2018-05-07T08:45:14.278Z,81.80
2018-05-07T08:47:42.506Z,80.20
2018-05-07T08:50:11.942Z,79.10
2018-05-07T08:52:40.170Z,79.40
2018-05-07T08:55:08.401Z,77.50
2018-05-07T08:57:36.667Z,78.60
2018-05-07T09:00:04.935Z,81.10
2018-05-07T09:02:33.114Z,81.00
2018-05-07T09:07:31.482Z,79.60
2018-05-07T09:09:59.650Z,79.50
2018-05-07T09:12:27.913Z,77.90
2018-05-07T09:14:57.274Z,80.40
2018-05-07T09:17:26.310Z,76.10
2018-05-07T09:19:54.539Z,75.40
2018-05-07T09:22:23.530Z,76.40
2018-05-07T09:24:51.811Z,68.40
2018-05-07T09:27:20.042Z,63.90
2018-05-07T09:29:49.814Z,60.50
2018-05-07T09:32:18.079Z,57.70
2018-05-07T09:37:16.143Z,59.70
2018-05-07T09:39:44.423Z,58.80
2018-05-07T09:42:14.163Z,60.50
2018-05-07T09:44:43.182Z,60.40
2018-05-07T09:47:12.582Z,66.70
2018-05-07T09:49:40.798Z,64.30
2018-05-07T09:52:09.790Z,63.30
2018-05-07T09:54:38.836Z,67.60
2018-05-07T09:57:07.148Z,67.60
2018-05-07T09:59:35.317Z,65.20
2018-05-07T10:02:03.570Z,65.20
2018-05-07T10:04:31.799Z,65.60
2018-05-07T10:07:00.067Z,67.40
2018-05-07T10:09:28.291Z,67.30
2018-05-07T10:11:57.646Z,67.30
2018-05-07T10:14:26.683Z,71.10
2018-05-07T10:16:56.076Z,67.90
2018-05-07T10:19:24.270Z,65.30
2018-05-07T10:21:52.522Z,66.40
2018-05-07T10:26:50.231Z,60.80
2018-05-07T10:29:18.887Z,63.40
2018-05-07T10:31:47.127Z,60.60
2018-05-07T10:34:15.400Z,58.20
2018-05-07T10:36:43.647Z,62.80
2018-05-07T10:39:11.870Z,61.80
2018-05-07T10:41:41.282Z,61.10
2018-05-07T10:44:09.502Z,58.40
2018-05-07T10:46:39.239Z,61.10
2018-05-07T10:51:37.346Z,59.20
2018-05-07T10:54:05.579Z,60.60
2018-05-07T10:56:34.619Z,58.20
2018-05-07T11:01:32.371Z,58.00
2018-05-07T11:04:02.099Z,56.90
2018-05-07T11:06:30.331Z,58.20
2018-05-07T11:08:58.567Z,56.30
2018-05-07T11:11:26.863Z,58.70
2018-05-07T11:13:55.086Z,58.80
2018-05-07T11:18:52.931Z,56.40
2018-05-07T11:21:21.160Z,55.10
2018-05-07T11:23:49.383Z,56.70
2018-05-07T11:26:17.638Z,54.60
2018-05-07T11:28:47.027Z,55.40
2018-05-07T11:31:15.315Z,55.00
2018-05-07T11:33:43.493Z,53.90
2018-05-07T11:36:11.718Z,55.70
2018-05-07T11:38:41.499Z,58.00
2018-05-07T11:41:09.722Z,54.80
2018-05-07T11:43:37.950Z,55.00
2018-05-07T11:46:06.220Z,57.50
2018-05-07T11:48:34.446Z,56.00
2018-05-07T11:51:02.674Z,55.10
2018-05-07T11:53:32.446Z,55.60
2018-05-07T11:56:00.675Z,54.40
2018-05-07T11:58:28.909Z,54.60
2018-05-07T12:00:57.159Z,58.20
2018-05-07T12:03:25.387Z,54.10
2018-05-07T12:05:53.655Z,51.80
2018-05-07T12:08:21.883Z,53.80
2018-05-07T12:13:19.608Z,54.30
2018-05-07T12:15:47.911Z,51.50
2018-05-07T12:18:16.054Z,54.40
2018-05-07T12:20:45.461Z,52.10
2018-05-07T12:23:13.705Z,53.10
2018-05-07T12:25:42.675Z,52.60
2018-05-07T12:28:12.446Z,52.40
2018-05-07T12:30:40.676Z,54.20
2018-05-07T12:33:08.902Z,55.00
2018-05-07T12:35:38.290Z,53.50
2018-05-07T12:40:36.415Z,51.70
2018-05-07T12:43:05.410Z,51.20
2018-05-07T12:45:33.630Z,52.30
2018-05-07T12:48:03.034Z,51.90
2018-05-07T12:50:31.263Z,50.80
2018-05-07T12:53:00.995Z,51.70
2018-05-07T12:55:30.023Z,54.00
2018-05-07T13:00:27.735Z,51.30
2018-05-07T13:05:26.175Z,53.40
2018-05-07T13:07:54.438Z,51.80
2018-05-07T13:10:22.659Z,55.90
2018-05-07T13:12:51.658Z,53.80
2018-05-07T13:15:20.327Z,54.80
2018-05-07T13:17:50.061Z,54.60
2018-05-07T13:20:19.044Z,55.70
2018-05-07T13:22:48.442Z,52.20
2018-05-07T13:25:16.671Z,53.90
2018-05-07T13:27:45.211Z,53.40
2018-05-07T13:30:15.599Z,52.50
2018-05-07T13:32:44.579Z,54.10
2018-05-07T13:35:13.572Z,53.70
2018-05-07T13:37:41.871Z,53.80
2018-05-07T13:40:10.096Z,52.30
2018-05-07T13:42:39.091Z,51.80
2018-05-07T13:45:07.363Z,51.60
2018-05-07T13:47:35.596Z,52.60
2018-05-07T13:50:03.819Z,51.70
2018-05-07T13:52:33.583Z,52.90
2018-05-07T13:55:01.819Z,51.40
2018-05-07T13:57:30.165Z,52.20
2018-05-07T13:59:58.341Z,56.50
2018-05-07T14:02:26.967Z,54.40
2018-05-07T14:04:57.035Z,54.30
2018-05-07T14:07:25.264Z,58.00
2018-05-07T14:09:54.254Z,56.80
2018-05-07T14:12:22.519Z,55.40
2018-05-07T14:14:50.743Z,57.10
2018-05-07T14:17:18.967Z,56.90
2018-05-07T14:19:48.746Z,56.10
2018-05-07T14:22:16.971Z,55.80
2018-05-07T14:24:45.954Z,56.70
2018-05-07T14:29:43.683Z,56.50
2018-05-07T14:32:11.913Z,53.50
2018-05-07T14:34:40.157Z,54.20
2018-05-07T14:37:08.391Z,58.40
2018-05-07T14:39:36.655Z,58.10
2018-05-07T14:42:05.643Z,59.40
2018-05-07T14:44:34.631Z,59.10
2018-05-07T14:47:02.883Z,58.90
2018-05-07T14:49:31.104Z,54.80
2018-05-07T14:52:00.143Z,55.60
2018-05-07T15:01:56.759Z,59.10
2018-05-07T15:06:54.874Z,56.10
2018-05-07T15:09:23.103Z,56.50
2018-05-07T15:11:51.322Z,58.00
2018-05-07T15:14:23.159Z,59.20
2018-05-07T15:16:51.386Z,58.80
2018-05-07T15:19:19.611Z,60.80
2018-05-07T15:21:48.646Z,63.20
2018-05-07T15:24:16.879Z,61.50
2018-05-07T15:29:14.604Z,58.90
2018-05-07T15:31:42.818Z,55.30
2018-05-07T15:34:11.042Z,59.20
2018-05-07T15:36:40.763Z,58.70
2018-05-07T15:39:08.985Z,58.60
2018-05-07T15:41:38.349Z,58.30
2018-05-07T15:44:06.689Z,59.30
2018-05-07T15:46:35.607Z,61.00
2018-05-07T15:49:03.831Z,59.80
2018-05-07T15:51:32.855Z,60.10
2018-05-07T15:54:01.858Z,57.70
2018-05-07T15:56:30.079Z,58.60
2018-05-07T15:58:59.479Z,59.50
2018-05-07T16:01:27.732Z,58.90
2018-05-07T16:03:55.964Z,60.00
2018-05-07T16:06:25.663Z,61.40
2018-05-07T16:08:53.955Z,61.70
2018-05-07T16:11:22.116Z,61.70
2018-05-07T16:13:50.382Z,59.70
2018-05-07T16:16:18.607Z,58.00
2018-05-07T16:18:46.850Z,59.70
2018-05-07T16:21:16.261Z,61.20
2018-05-07T16:23:44.462Z,60.20
2018-05-07T16:26:13.450Z,62.80
2018-05-07T16:28:43.229Z,60.80
2018-05-07T16:31:12.671Z,61.20
2018-05-07T16:33:40.814Z,61.30
2018-05-07T16:36:09.095Z,62.80
2018-05-07T16:38:37.318Z,62.10
2018-05-07T16:41:05.543Z,61.70
2018-05-07T16:43:34.204Z,62.40
2018-05-07T16:46:03.198Z,61.00
2018-05-07T16:48:32.197Z,62.30
2018-05-07T16:51:00.455Z,61.90
2018-05-07T16:53:28.683Z,61.60
2018-05-07T16:55:58.043Z,62.60
2018-05-07T17:00:56.870Z,62.60
2018-05-07T17:03:25.155Z,63.40
2018-05-07T17:05:54.191Z,62.80
2018-05-07T17:08:22.856Z,61.50
2018-05-07T17:10:51.038Z,61.50
2018-05-07T17:13:19.308Z,60.60
2018-05-07T17:15:47.530Z,62.10
2018-05-07T17:18:16.891Z,63.00
2018-05-07T17:20:45.147Z,62.10
2018-05-07T17:23:13.362Z,62.10
2018-05-07T17:25:43.134Z,61.70
2018-05-07T17:28:11.355Z,60.80
2018-05-07T17:30:39.578Z,62.70
2018-05-07T17:33:07.879Z,61.30
2018-05-07T17:35:36.498Z,62.40
2018-05-07T17:38:06.616Z,62.90
2018-05-07T17:43:04.603Z,60.70
2018-05-07T17:48:36.099Z,59.80
2018-05-07T17:51:04.354Z,59.30
2018-05-07T17:53:32.619Z,59.60
2018-05-07T17:58:30.723Z,61.10
2018-05-07T18:00:58.947Z,61.50
2018-05-07T18:03:27.751Z,59.90
2018-05-07T18:05:55.979Z,59.80
2018-05-07T18:08:25.334Z,59.60
2018-05-07T18:10:55.197Z,59.40
2018-05-07T18:13:23.323Z,59.70
2018-05-07T18:15:51.586Z,59.90
2018-05-07T18:18:19.815Z,61.20
2018-05-07T18:20:48.032Z,62.70
2018-05-07T18:23:16.296Z,62.60
2018-05-07T18:25:44.518Z,62.40
2018-05-07T18:28:12.737Z,62.00
2018-05-07T18:30:40.994Z,62.10
2018-05-07T18:33:09.210Z,60.80
2018-05-07T18:35:38.242Z,62.10
2018-05-07T18:40:36.689Z,61.50
2018-05-07T18:43:04.956Z,62.60
2018-05-07T18:45:33.190Z,61.20
2018-05-07T18:48:01.412Z,61.80
2018-05-07T18:50:29.682Z,62.60
2018-05-07T18:52:57.909Z,63.20
2018-05-07T18:55:26.123Z,62.80
2018-05-07T18:57:54.391Z,62.80
2018-05-07T19:00:23.379Z,63.30
2018-05-07T19:02:51.607Z,63.60
2018-05-07T19:05:19.881Z,63.30
2018-05-07T19:07:48.108Z,64.30
2018-05-07T19:10:16.336Z,63.70
2018-05-07T19:12:44.646Z,63.60
2018-05-07T19:15:12.867Z,64.50
2018-05-07T19:17:42.226Z,64.30
2018-05-07T19:22:40.339Z,65.20
2018-05-07T19:25:08.567Z,65.50
2018-05-07T19:27:36.822Z,65.70
2018-05-07T19:32:34.923Z,67.20
2018-05-07T19:35:03.611Z,67.30
2018-05-07T19:37:32.935Z,67.80
2018-05-07T19:40:01.279Z,67.90
2018-05-07T19:45:00.017Z,68.40
2018-05-07T19:47:28.271Z,68.70
2018-05-07T19:49:57.630Z,68.60
2018-05-07T19:52:25.851Z,68.80
2018-05-07T19:54:54.143Z,68.70
2018-05-07T19:57:22.347Z,69.40
2018-05-07T19:59:50.569Z,68.50
2018-05-07T20:04:48.290Z,69.50
2018-05-07T20:07:16.510Z,69.10
2018-05-07T20:09:45.558Z,70.20
2018-05-07T20:14:44.780Z,70.40
2018-05-07T20:19:44.003Z,70.70
2018-05-07T20:22:12.999Z,70.90
2018-05-07T20:24:41.259Z,71.00
2018-05-07T20:27:09.487Z,71.30
2018-05-07T20:29:38.519Z,73.10
2018-05-07T20:32:07.521Z,71.60
2018-05-07T20:34:35.747Z,71.80
2018-05-07T20:37:04.015Z,72.50
2018-05-07T20:39:32.234Z,72.00
2018-05-07T20:42:01.987Z,72.10
2018-05-07T20:44:30.272Z,72.00
2018-05-07T20:46:59.263Z,72.70
2018-05-07T20:49:28.633Z,72.40
2018-05-07T20:51:56.910Z,72.30
2018-05-07T20:54:25.139Z,71.90
2018-05-07T20:56:53.371Z,71.80
2018-05-07T20:59:21.680Z,71.50
2018-05-07T21:01:49.902Z,71.80
2018-05-07T21:06:49.138Z,72.00
2018-05-07T21:09:17.391Z,72.10
2018-05-07T21:14:15.482Z,71.70
2018-05-07T21:16:43.762Z,71.80
2018-05-07T21:19:11.999Z,71.60
2018-05-07T21:21:40.267Z,72.20
2018-05-07T21:24:08.499Z,72.50
2018-05-07T21:26:36.733Z,72.90
2018-05-07T21:29:06.131Z,73.10
2018-05-07T21:31:34.358Z,72.90
2018-05-07T21:34:03.347Z,73.60
2018-05-07T21:36:32.382Z,73.30
2018-05-07T21:39:00.615Z,73.40
2018-05-07T21:41:28.835Z,73.10
2018-05-07T21:43:57.108Z,72.60
2018-05-07T21:46:26.843Z,73.10
2018-05-07T21:48:55.834Z,73.40
2018-05-07T21:51:24.170Z,72.50
2018-05-07T21:53:53.162Z,73.20
2018-05-07T21:56:21.402Z,72.40
2018-05-07T21:58:50.574Z,73.00
2018-05-07T22:01:19.591Z,74.00
2018-05-07T22:06:17.702Z,75.50
2018-05-07T22:11:16.174Z,76.10
2018-05-07T22:13:45.354Z,76.10
2018-05-07T22:16:14.342Z,76.50
2018-05-07T22:21:12.494Z,77.00
2018-05-07T22:23:41.483Z,78.00
2018-05-07T22:26:09.806Z,77.70
2018-05-07T22:28:38.763Z,78.00
2018-05-07T22:31:06.992Z,78.30
2018-05-07T22:33:35.259Z,78.90
2018-05-07T22:36:03.488Z,79.30
2018-05-07T22:38:31.702Z,80.10
2018-05-07T22:40:59.982Z,81.10
2018-05-07T22:43:28.210Z,80.50
2018-05-07T22:45:56.435Z,82.10
2018-05-07T22:48:25.871Z,82.30
2018-05-07T22:53:23.939Z,82.00
2018-05-07T22:55:52.974Z,80.80
2018-05-07T22:58:22.326Z,80.10
2018-05-07T23:03:20.429Z,80.60
2018-05-07T23:08:18.743Z,82.70
2018-05-07T23:13:17.032Z,84.30
2018-05-07T23:15:45.264Z,84.30
2018-05-07T23:18:13.487Z,83.90
2018-05-07T23:20:43.292Z,84.20
2018-05-07T23:23:11.950Z,85.50
2018-05-07T23:25:40.170Z,86.10
2018-05-07T23:28:08.400Z,86.70
2018-05-07T23:30:36.671Z,86.90
2018-05-07T23:33:06.403Z,88.80
2018-05-07T23:35:34.634Z,89.30
2018-05-07T23:38:02.903Z,89.70
2018-05-07T23:40:31.896Z,89.70
2018-05-07T23:43:00.886Z,90.20
2018-05-07T23:45:29.159Z,90.30
2018-05-07T23:47:58.891Z,90.60
2018-05-07T23:50:27.114Z,90.60
2018-05-07T23:52:58.859Z,91.00
2018-05-07T23:55:27.083Z,91.10
2018-05-07T23:57:55.314Z,91.50
